CYZY

Mackenzie Airport

Mackenzie, British Columbia, Canada
METAR CYZY 241200Z AUTO 17005KT 9SM OVC018 M06/M07 A2968 RMK SLP092
Observed Flight Rules
Feb-24 @ 12:00 UTC (25 minutes ago) Marginal Visual Flight Rules
Wind Visibility Clouds
170° at 5 knots 9 miles
  • Overcast at 1,800' AGL
Temperatures Readings
Current -6°C / 21°F
Dewpoint -7°C / 19°F
Humidity 93%
Altimeter 29.68" Hg
Pressure 1009.2 hPa
Elevation 690
METAR CYZY 241200Z AUTO 17005KT 9SM OVC018 M06/M07 A2968 RMK SLP092
Observed Flight Rules
Feb-24 @ 12:00 UTC
(25 minutes ago)
MVFR
Wind Visibility
170° at 5 knots 9 miles
Clouds
  • Overcast at 1,800' AGL
Temperature Dewpoint
-6°C / 21°F -7°C / 19°F
Humidity Altimeter Pressure
93% 29.68" Hg 1009.2 hPa